sensor_id;sensor_type;location;lat;lon;timestamp;P1;durP1;ratioP1;P2;durP2;ratioP2
5650;SDS011;40241;52.684;9.758;2023-09-08T00:01:48;3.77;;;3.13;;
5650;SDS011;40241;52.684;9.758;2023-09-08T00:04:13;3.50;;;3.30;;
5650;SDS011;40241;52.684;9.758;2023-09-08T00:06:39;4.27;;;3.90;;
5650;SDS011;40241;52.684;9.758;2023-09-08T00:09:05;2.93;;;2.77;;
5650;SDS011;40241;52.684;9.758;2023-09-08T00:11:31;3.90;;;3.50;;
5650;SDS011;40241;52.684;9.758;2023-09-08T00:13:56;3.10;;;2.90;;
5650;SDS011;40241;52.684;9.758;2023-09-08T00:16:22;3.50;;;3.20;;
5650;SDS011;40241;52.684;9.758;2023-09-08T00:18:47;7.30;;;3.30;;
5650;SDS011;40241;52.684;9.758;2023-09-08T00:21:13;4.60;;;3.60;;
5650;SDS011;40241;52.684;9.758;2023-09-08T00:23:38;3.87;;;3.57;;
5650;SDS011;40241;52.684;9.758;2023-09-08T00:26:04;3.73;;;3.43;;
5650;SDS011;40241;52.684;9.758;2023-09-08T00:28:29;3.50;;;3.20;;
5650;SDS011;40241;52.684;9.758;2023-09-08T00:30:54;3.27;;;3.03;;
5650;SDS011;40241;52.684;9.758;2023-09-08T00:33:20;4.97;;;3.17;;
5650;SDS011;40241;52.684;9.758;2023-09-08T00:35:50;3.20;;;3.00;;
5650;SDS011;40241;52.684;9.758;2023-09-08T00:38:15;3.47;;;3.20;;
5650;SDS011;40241;52.684;9.758;2023-09-08T00:40:40;3.60;;;3.30;;
5650;SDS011;40241;52.684;9.758;2023-09-08T00:43:06;7.97;;;3.83;;
5650;SDS011;40241;52.684;9.758;2023-09-08T00:45:31;3.70;;;3.40;;
5650;SDS011;40241;52.684;9.758;2023-09-08T00:48:01;3.50;;;3.20;;
5650;SDS011;40241;52.684;9.758;2023-09-08T00:50:26;4.90;;;3.30;;
5650;SDS011;40241;52.684;9.758;2023-09-08T00:52:52;4.20;;;3.53;;
5650;SDS011;40241;52.684;9.758;2023-09-08T00:55:17;3.50;;;3.20;;
5650;SDS011;40241;52.684;9.758;2023-09-08T00:57:42;3.97;;;3.67;;
5650;SDS011;40241;52.684;9.758;2023-09-08T01:00:08;3.90;;;3.60;;
5650;SDS011;40241;52.684;9.758;2023-09-08T01:02:34;3.13;;;2.90;;
5650;SDS011;40241;52.684;9.758;2023-09-08T01:04:59;3.53;;;3.23;;
5650;SDS011;40241;52.684;9.758;2023-09-08T01:07:25;3.57;;;3.27;;
5650;SDS011;40241;52.684;9.758;2023-09-08T01:09:55;4.27;;;3.67;;
5650;SDS011;40241;52.684;9.758;2023-09-08T01:12:20;3.30;;;3.10;;
5650;SDS011;40241;52.684;9.758;2023-09-08T01:14:46;3.47;;;3.17;;
5650;SDS011;40241;52.684;9.758;2023-09-08T01:17:11;3.47;;;3.20;;
5650;SDS011;40241;52.684;9.758;2023-09-08T01:19:37;3.20;;;3.00;;
5650;SDS011;40241;52.684;9.758;2023-09-08T01:26:59;3.93;;;3.63;;
5650;SDS011;40241;52.684;9.758;2023-09-08T01:29:25;4.20;;;3.80;;
5650;SDS011;40241;52.684;9.758;2023-09-08T01:31:51;4.30;;;3.90;;
5650;SDS011;40241;52.684;9.758;2023-09-08T01:34:17;5.00;;;4.10;;
5650;SDS011;40241;52.684;9.758;2023-09-08T01:36:44;3.53;;;3.23;;
5650;SDS011;40241;52.684;9.758;2023-09-08T01:39:10;3.20;;;3.00;;
5650;SDS011;40241;52.684;9.758;2023-09-08T01:41:35;6.50;;;3.63;;
5650;SDS011;40241;52.684;9.758;2023-09-08T01:44:01;3.43;;;3.13;;
5650;SDS011;40241;52.684;9.758;2023-09-08T01:46:32;3.73;;;3.30;;
5650;SDS011;40241;52.684;9.758;2023-09-08T01:48:58;4.10;;;3.50;;
5650;SDS011;40241;52.684;9.758;2023-09-08T01:51:23;3.40;;;3.10;;
5650;SDS011;40241;52.684;9.758;2023-09-08T01:53:49;4.87;;;3.53;;
5650;SDS011;40241;52.684;9.758;2023-09-08T01:56:14;3.37;;;3.13;;
5650;SDS011;40241;52.684;9.758;2023-09-08T01:58:39;3.73;;;3.43;;
5650;SDS011;40241;52.684;9.758;2023-09-08T02:01:04;3.97;;;3.43;;
5650;SDS011;40241;52.684;9.758;2023-09-08T02:03:31;4.93;;;3.33;;
5650;SDS011;40241;52.684;9.758;2023-09-08T02:05:57;4.77;;;3.40;;
5650;SDS011;40241;52.684;9.758;2023-09-08T02:08:22;3.70;;;3.40;;
5650;SDS011;40241;52.684;9.758;2023-09-08T02:10:48;4.10;;;3.70;;
5650;SDS011;40241;52.684;9.758;2023-09-08T02:13:13;6.23;;;4.23;;
5650;SDS011;40241;52.684;9.758;2023-09-08T02:15:38;4.03;;;3.73;;
5650;SDS011;40241;52.684;9.758;2023-09-08T02:18:04;4.63;;;3.53;;
5650;SDS011;40241;52.684;9.758;2023-09-08T02:20:29;3.83;;;3.53;;
5650;SDS011;40241;52.684;9.758;2023-09-08T02:22:55;6.50;;;3.40;;
5650;SDS011;40241;52.684;9.758;2023-09-08T02:25:20;7.07;;;3.90;;
5650;SDS011;40241;52.684;9.758;2023-09-08T02:27:47;3.53;;;3.23;;
5650;SDS011;40241;52.684;9.758;2023-09-08T02:30:13;3.63;;;3.33;;
5650;SDS011;40241;52.684;9.758;2023-09-08T02:32:38;4.17;;;3.87;;
5650;SDS011;40241;52.684;9.758;2023-09-08T02:35:03;4.00;;;3.60;;
5650;SDS011;40241;52.684;9.758;2023-09-08T02:37:29;3.67;;;3.37;;
5650;SDS011;40241;52.684;9.758;2023-09-08T02:39:54;4.30;;;3.80;;
5650;SDS011;40241;52.684;9.758;2023-09-08T02:42:19;3.97;;;3.00;;
5650;SDS011;40241;52.684;9.758;2023-09-08T02:44:45;3.90;;;3.57;;
5650;SDS011;40241;52.684;9.758;2023-09-08T02:47:10;4.00;;;3.40;;
5650;SDS011;40241;52.684;9.758;2023-09-08T02:49:35;4.33;;;3.93;;
5650;SDS011;40241;52.684;9.758;2023-09-08T02:52:01;3.60;;;3.17;;
5650;SDS011;40241;52.684;9.758;2023-09-08T02:54:26;3.30;;;3.10;;
5650;SDS011;40241;52.684;9.758;2023-09-08T02:56:51;4.10;;;3.30;;
5650;SDS011;40241;52.684;9.758;2023-09-08T02:59:17;4.20;;;3.90;;
5650;SDS011;40241;52.684;9.758;2023-09-08T03:01:42;4.03;;;3.53;;
5650;SDS011;40241;52.684;9.758;2023-09-08T03:04:07;5.90;;;3.87;;
5650;SDS011;40241;52.684;9.758;2023-09-08T03:06:34;5.23;;;3.77;;
5650;SDS011;40241;52.684;9.758;2023-09-08T03:08:59;4.27;;;3.90;;
5650;SDS011;40241;52.684;9.758;2023-09-08T03:11:25;4.10;;;3.80;;
5650;SDS011;40241;52.684;9.758;2023-09-08T03:13:50;4.07;;;3.70;;
5650;SDS011;40241;52.684;9.758;2023-09-08T03:16:15;7.17;;;4.00;;
5650;SDS011;40241;52.684;9.758;2023-09-08T03:18:41;4.00;;;3.70;;
5650;SDS011;40241;52.684;9.758;2023-09-08T03:21:07;4.33;;;3.93;;
5650;SDS011;40241;52.684;9.758;2023-09-08T03:23:36;4.03;;;3.73;;
5650;SDS011;40241;52.684;9.758;2023-09-08T03:26:02;3.47;;;3.20;;
5650;SDS011;40241;52.684;9.758;2023-09-08T03:28:27;5.70;;;3.80;;
5650;SDS011;40241;52.684;9.758;2023-09-08T03:30:53;4.50;;;3.90;;
5650;SDS011;40241;52.684;9.758;2023-09-08T03:33:18;5.10;;;4.60;;
5650;SDS011;40241;52.684;9.758;2023-09-08T03:35:44;3.90;;;3.60;;
5650;SDS011;40241;52.684;9.758;2023-09-08T03:38:09;4.60;;;4.10;;
5650;SDS011;40241;52.684;9.758;2023-09-08T03:40:34;5.00;;;3.57;;
5650;SDS011;40241;52.684;9.758;2023-09-08T03:43:00;4.30;;;3.90;;
5650;SDS011;40241;52.684;9.758;2023-09-08T03:45:25;5.23;;;4.60;;
5650;SDS011;40241;52.684;9.758;2023-09-08T03:47:50;4.10;;;3.80;;
5650;SDS011;40241;52.684;9.758;2023-09-08T03:50:16;5.40;;;4.27;;
5650;SDS011;40241;52.684;9.758;2023-09-08T03:52:41;3.87;;;3.57;;
5650;SDS011;40241;52.684;9.758;2023-09-08T03:55:06;3.90;;;3.60;;
5650;SDS011;40241;52.684;9.758;2023-09-08T03:57:32;4.27;;;3.87;;
5650;SDS011;40241;52.684;9.758;2023-09-08T03:59:57;3.53;;;3.23;;
5650;SDS011;40241;52.684;9.758;2023-09-08T04:02:22;4.13;;;3.83;;
5650;SDS011;40241;52.684;9.758;2023-09-08T04:04:48;4.50;;;4.10;;
5650;SDS011;40241;52.684;9.758;2023-09-08T04:07:13;4.60;;;3.97;;
5650;SDS011;40241;52.684;9.758;2023-09-08T04:09:38;4.60;;;4.20;;
5650;SDS011;40241;52.684;9.758;2023-09-08T04:12:04;4.47;;;4.03;;
5650;SDS011;40241;52.684;9.758;2023-09-08T04:14:30;4.60;;;3.67;;
5650;SDS011;40241;52.684;9.758;2023-09-08T04:16:58;4.20;;;3.80;;
5650;SDS011;40241;52.684;9.758;2023-09-08T04:19:23;4.20;;;3.80;;
5650;SDS011;40241;52.684;9.758;2023-09-08T04:21:48;4.33;;;4.03;;
5650;SDS011;40241;52.684;9.758;2023-09-08T04:24:13;4.80;;;4.33;;
5650;SDS011;40241;52.684;9.758;2023-09-08T04:26:39;5.13;;;4.53;;
5650;SDS011;40241;52.684;9.758;2023-09-08T04:29:04;4.50;;;4.10;;
5650;SDS011;40241;52.684;9.758;2023-09-08T04:31:29;4.40;;;3.83;;
5650;SDS011;40241;52.684;9.758;2023-09-08T04:33:55;3.80;;;3.50;;
5650;SDS011;40241;52.684;9.758;2023-09-08T04:36:20;3.90;;;3.60;;
5650;SDS011;40241;52.684;9.758;2023-09-08T04:38:45;4.30;;;4.00;;
5650;SDS011;40241;52.684;9.758;2023-09-08T04:41:11;4.53;;;4.10;;
5650;SDS011;40241;52.684;9.758;2023-09-08T04:43:36;4.50;;;4.10;;
5650;SDS011;40241;52.684;9.758;2023-09-08T04:46:02;4.43;;;4.03;;
5650;SDS011;40241;52.684;9.758;2023-09-08T04:48:29;4.17;;;3.80;;
5650;SDS011;40241;52.684;9.758;2023-09-08T04:50:56;5.23;;;3.40;;
5650;SDS011;40241;52.684;9.758;2023-09-08T04:53:21;4.20;;;3.77;;
5650;SDS011;40241;52.684;9.758;2023-09-08T04:55:46;3.93;;;3.63;;
5650;SDS011;40241;52.684;9.758;2023-09-08T04:58:12;4.13;;;3.73;;
5650;SDS011;40241;52.684;9.758;2023-09-08T05:00:37;4.37;;;4.00;;
5650;SDS011;40241;52.684;9.758;2023-09-08T05:03:04;4.70;;;4.30;;
5650;SDS011;40241;52.684;9.758;2023-09-08T05:05:30;3.87;;;3.57;;
5650;SDS011;40241;52.684;9.758;2023-09-08T05:07:55;3.87;;;3.57;;
5650;SDS011;40241;52.684;9.758;2023-09-08T05:10:22;4.27;;;3.90;;
5650;SDS011;40241;52.684;9.758;2023-09-08T05:12:47;3.70;;;3.40;;
5650;SDS011;40241;52.684;9.758;2023-09-08T05:15:14;3.83;;;3.53;;
5650;SDS011;40241;52.684;9.758;2023-09-08T05:17:41;4.23;;;3.83;;
5650;SDS011;40241;52.684;9.758;2023-09-08T05:20:06;3.77;;;3.50;;
5650;SDS011;40241;52.684;9.758;2023-09-08T05:22:32;4.40;;;4.00;;
5650;SDS011;40241;52.684;9.758;2023-09-08T05:24:58;4.10;;;3.80;;
5650;SDS011;40241;52.684;9.758;2023-09-08T05:27:23;4.30;;;3.97;;
5650;SDS011;40241;52.684;9.758;2023-09-08T05:29:48;6.80;;;3.67;;
5650;SDS011;40241;52.684;9.758;2023-09-08T05:32:14;4.93;;;4.53;;
5650;SDS011;40241;52.684;9.758;2023-09-08T05:34:39;4.03;;;3.60;;
5650;SDS011;40241;52.684;9.758;2023-09-08T05:37:04;4.60;;;4.20;;
5650;SDS011;40241;52.684;9.758;2023-09-08T05:39:30;4.37;;;3.67;;
5650;SDS011;40241;52.684;9.758;2023-09-08T05:41:55;5.57;;;3.70;;
5650;SDS011;40241;52.684;9.758;2023-09-08T05:44:21;4.40;;;4.00;;
5650;SDS011;40241;52.684;9.758;2023-09-08T05:46:46;4.13;;;3.80;;
5650;SDS011;40241;52.684;9.758;2023-09-08T05:49:12;3.80;;;3.50;;
5650;SDS011;40241;52.684;9.758;2023-09-08T05:51:39;3.70;;;3.47;;
5650;SDS011;40241;52.684;9.758;2023-09-08T05:54:04;9.13;;;4.30;;
5650;SDS011;40241;52.684;9.758;2023-09-08T05:56:30;4.50;;;3.67;;
5650;SDS011;40241;52.684;9.758;2023-09-08T05:58:56;3.87;;;3.50;;
5650;SDS011;40241;52.684;9.758;2023-09-08T06:01:22;4.33;;;3.83;;
5650;SDS011;40241;52.684;9.758;2023-09-08T06:03:49;3.73;;;3.40;;
5650;SDS011;40241;52.684;9.758;2023-09-08T06:06:14;4.70;;;3.60;;
5650;SDS011;40241;52.684;9.758;2023-09-08T06:08:39;4.13;;;3.60;;
5650;SDS011;40241;52.684;9.758;2023-09-08T06:11:05;4.43;;;3.57;;
5650;SDS011;40241;52.684;9.758;2023-09-08T06:13:30;7.00;;;4.00;;
5650;SDS011;40241;52.684;9.758;2023-09-08T06:15:55;4.90;;;4.03;;
5650;SDS011;40241;52.684;9.758;2023-09-08T06:18:21;4.17;;;3.73;;
5650;SDS011;40241;52.684;9.758;2023-09-08T06:20:46;4.40;;;3.50;;
5650;SDS011;40241;52.684;9.758;2023-09-08T06:23:12;3.60;;;3.40;;
5650;SDS011;40241;52.684;9.758;2023-09-08T06:25:39;3.87;;;3.57;;
5650;SDS011;40241;52.684;9.758;2023-09-08T06:28:05;5.03;;;4.07;;
5650;SDS011;40241;52.684;9.758;2023-09-08T06:30:30;4.53;;;4.07;;
5650;SDS011;40241;52.684;9.758;2023-09-08T06:32:56;9.67;;;3.60;;
5650;SDS011;40241;52.684;9.758;2023-09-08T06:35:21;4.40;;;4.00;;
5650;SDS011;40241;52.684;9.758;2023-09-08T06:37:46;4.70;;;3.93;;
5650;SDS011;40241;52.684;9.758;2023-09-08T06:40:12;3.90;;;3.60;;
5650;SDS011;40241;52.684;9.758;2023-09-08T06:42:37;5.63;;;4.17;;
5650;SDS011;40241;52.684;9.758;2023-09-08T06:45:02;4.13;;;3.73;;
5650;SDS011;40241;52.684;9.758;2023-09-08T06:47:28;5.00;;;4.43;;
5650;SDS011;40241;52.684;9.758;2023-09-08T06:49:53;5.80;;;4.90;;
5650;SDS011;40241;52.684;9.758;2023-09-08T06:52:19;6.00;;;4.53;;
5650;SDS011;40241;52.684;9.758;2023-09-08T06:54:44;4.73;;;4.23;;
5650;SDS011;40241;52.684;9.758;2023-09-08T06:57:12;4.10;;;3.70;;
5650;SDS011;40241;52.684;9.758;2023-09-08T06:59:38;5.73;;;4.17;;
5650;SDS011;40241;52.684;9.758;2023-09-08T07:02:03;4.90;;;3.70;;
5650;SDS011;40241;52.684;9.758;2023-09-08T07:04:29;5.23;;;4.37;;
5650;SDS011;40241;52.684;9.758;2023-09-08T07:06:55;5.00;;;4.50;;
5650;SDS011;40241;52.684;9.758;2023-09-08T07:09:20;8.80;;;4.47;;
5650;SDS011;40241;52.684;9.758;2023-09-08T07:11:46;5.40;;;4.57;;
5650;SDS011;40241;52.684;9.758;2023-09-08T07:14:11;6.40;;;4.77;;
5650;SDS011;40241;52.684;9.758;2023-09-08T07:16:37;5.17;;;4.33;;
5650;SDS011;40241;52.684;9.758;2023-09-08T07:19:02;5.07;;;3.93;;
5650;SDS011;40241;52.684;9.758;2023-09-08T07:21:28;6.30;;;4.27;;
5650;SDS011;40241;52.684;9.758;2023-09-08T07:23:53;4.93;;;4.43;;
5650;SDS011;40241;52.684;9.758;2023-09-08T07:26:21;4.70;;;4.30;;
5650;SDS011;40241;52.684;9.758;2023-09-08T07:28:47;4.67;;;4.27;;
5650;SDS011;40241;52.684;9.758;2023-09-08T07:31:13;6.87;;;5.10;;
5650;SDS011;40241;52.684;9.758;2023-09-08T07:33:39;4.90;;;4.40;;
5650;SDS011;40241;52.684;9.758;2023-09-08T07:36:04;6.23;;;4.90;;
5650;SDS011;40241;52.684;9.758;2023-09-08T07:38:31;5.10;;;4.20;;
5650;SDS011;40241;52.684;9.758;2023-09-08T07:40:57;4.77;;;4.23;;
5650;SDS011;40241;52.684;9.758;2023-09-08T07:43:24;4.90;;;4.47;;
5650;SDS011;40241;52.684;9.758;2023-09-08T07:45:50;3.90;;;3.50;;
5650;SDS011;40241;52.684;9.758;2023-09-08T07:48:15;3.97;;;3.67;;
5650;SDS011;40241;52.684;9.758;2023-09-08T07:50:40;4.50;;;4.10;;
5650;SDS011;40241;52.684;9.758;2023-09-08T07:53:06;5.03;;;4.53;;
5650;SDS011;40241;52.684;9.758;2023-09-08T07:55:31;5.97;;;4.17;;
5650;SDS011;40241;52.684;9.758;2023-09-08T07:57:57;4.97;;;3.90;;
5650;SDS011;40241;52.684;9.758;2023-09-08T08:00:23;6.00;;;3.80;;
5650;SDS011;40241;52.684;9.758;2023-09-08T08:02:50;5.03;;;4.37;;
5650;SDS011;40241;52.684;9.758;2023-09-08T08:05:18;5.17;;;4.67;;
5650;SDS011;40241;52.684;9.758;2023-09-08T08:07:43;6.90;;;4.00;;
5650;SDS011;40241;52.684;9.758;2023-09-08T08:10:09;5.83;;;4.60;;
5650;SDS011;40241;52.684;9.758;2023-09-08T08:12:35;5.37;;;4.10;;
5650;SDS011;40241;52.684;9.758;2023-09-08T08:15:01;5.43;;;4.40;;
5650;SDS011;40241;52.684;9.758;2023-09-08T08:17:26;5.70;;;4.50;;
5650;SDS011;40241;52.684;9.758;2023-09-08T08:19:54;4.43;;;4.03;;
5650;SDS011;40241;52.684;9.758;2023-09-08T08:22:20;5.87;;;4.30;;
5650;SDS011;40241;52.684;9.758;2023-09-08T08:24:45;4.87;;;4.27;;
5650;SDS011;40241;52.684;9.758;2023-09-08T08:27:11;4.73;;;4.20;;
5650;SDS011;40241;52.684;9.758;2023-09-08T08:29:36;4.67;;;4.27;;
5650;SDS011;40241;52.684;9.758;2023-09-08T08:32:02;4.63;;;4.20;;
5650;SDS011;40241;52.684;9.758;2023-09-08T08:34:27;3.97;;;3.53;;
5650;SDS011;40241;52.684;9.758;2023-09-08T08:36:53;4.70;;;4.03;;
5650;SDS011;40241;52.684;9.758;2023-09-08T08:39:18;5.23;;;4.30;;
5650;SDS011;40241;52.684;9.758;2023-09-08T08:41:44;6.00;;;4.00;;
5650;SDS011;40241;52.684;9.758;2023-09-08T08:44:09;4.40;;;4.00;;
5650;SDS011;40241;52.684;9.758;2023-09-08T08:46:38;4.73;;;4.33;;
5650;SDS011;40241;52.684;9.758;2023-09-08T08:49:05;5.00;;;4.30;;
5650;SDS011;40241;52.684;9.758;2023-09-08T08:51:31;4.00;;;3.60;;
5650;SDS011;40241;52.684;9.758;2023-09-08T08:53:57;4.10;;;3.70;;
5650;SDS011;40241;52.684;9.758;2023-09-08T08:56:23;4.70;;;4.30;;
5650;SDS011;40241;52.684;9.758;2023-09-08T08:58:49;3.93;;;3.60;;
5650;SDS011;40241;52.684;9.758;2023-09-08T09:01:15;4.47;;;4.03;;
5650;SDS011;40241;52.684;9.758;2023-09-08T09:03:41;4.10;;;3.80;;
5650;SDS011;40241;52.684;9.758;2023-09-08T09:06:08;3.90;;;3.57;;
5650;SDS011;40241;52.684;9.758;2023-09-08T09:08:35;5.20;;;4.37;;
5650;SDS011;40241;52.684;9.758;2023-09-08T09:11:03;3.77;;;3.43;;
5650;SDS011;40241;52.684;9.758;2023-09-08T09:13:29;3.97;;;3.67;;
5650;SDS011;40241;52.684;9.758;2023-09-08T09:15:57;5.20;;;3.80;;
5650;SDS011;40241;52.684;9.758;2023-09-08T09:18:25;3.97;;;3.57;;
5650;SDS011;40241;52.684;9.758;2023-09-08T09:20:54;4.10;;;3.80;;
5650;SDS011;40241;52.684;9.758;2023-09-08T09:23:27;5.00;;;4.03;;
5650;SDS011;40241;52.684;9.758;2023-09-08T09:25:54;3.90;;;3.60;;
5650;SDS011;40241;52.684;9.758;2023-09-08T09:28:19;4.60;;;4.20;;
5650;SDS011;40241;52.684;9.758;2023-09-08T09:30:48;4.40;;;3.50;;
5650;SDS011;40241;52.684;9.758;2023-09-08T09:33:16;4.50;;;4.10;;
5650;SDS011;40241;52.684;9.758;2023-09-08T09:35:46;4.40;;;3.43;;
5650;SDS011;40241;52.684;9.758;2023-09-08T09:38:13;3.70;;;3.40;;
5650;SDS011;40241;52.684;9.758;2023-09-08T09:40:39;3.60;;;3.20;;
5650;SDS011;40241;52.684;9.758;2023-09-08T09:43:05;3.77;;;3.40;;
5650;SDS011;40241;52.684;9.758;2023-09-08T09:45:33;2.90;;;2.70;;
5650;SDS011;40241;52.684;9.758;2023-09-08T09:47:59;4.23;;;3.87;;
5650;SDS011;40241;52.684;9.758;2023-09-08T09:50:31;3.90;;;3.50;;
5650;SDS011;40241;52.684;9.758;2023-09-08T09:52:58;3.90;;;3.50;;
5650;SDS011;40241;52.684;9.758;2023-09-08T09:55:28;3.40;;;3.20;;
5650;SDS011;40241;52.684;9.758;2023-09-08T09:57:57;3.80;;;3.50;;
5650;SDS011;40241;52.684;9.758;2023-09-08T10:00:28;4.70;;;3.47;;
5650;SDS011;40241;52.684;9.758;2023-09-08T10:02:54;4.17;;;3.67;;
5650;SDS011;40241;52.684;9.758;2023-09-08T10:05:20;3.60;;;3.30;;
5650;SDS011;40241;52.684;9.758;2023-09-08T10:07:46;3.70;;;3.40;;
5650;SDS011;40241;52.684;9.758;2023-09-08T10:10:13;3.93;;;3.00;;
5650;SDS011;40241;52.684;9.758;2023-09-08T10:12:39;5.67;;;3.03;;
5650;SDS011;40241;52.684;9.758;2023-09-08T10:15:09;3.70;;;3.40;;
5650;SDS011;40241;52.684;9.758;2023-09-08T10:17:35;2.97;;;2.70;;
5650;SDS011;40241;52.684;9.758;2023-09-08T10:20:02;3.83;;;3.17;;
5650;SDS011;40241;52.684;9.758;2023-09-08T10:22:36;3.40;;;3.10;;
5650;SDS011;40241;52.684;9.758;2023-09-08T10:25:06;3.17;;;2.87;;
5650;SDS011;40241;52.684;9.758;2023-09-08T10:27:33;3.87;;;2.90;;
5650;SDS011;40241;52.684;9.758;2023-09-08T10:30:01;3.37;;;3.07;;
5650;SDS011;40241;52.684;9.758;2023-09-08T10:32:28;3.40;;;3.10;;
5650;SDS011;40241;52.684;9.758;2023-09-08T10:34:54;3.20;;;2.90;;
5650;SDS011;40241;52.684;9.758;2023-09-08T10:37:23;3.10;;;2.60;;
5650;SDS011;40241;52.684;9.758;2023-09-08T10:39:50;3.00;;;2.80;;
5650;SDS011;40241;52.684;9.758;2023-09-08T10:44:43;2.87;;;2.67;;
5650;SDS011;40241;52.684;9.758;2023-09-08T10:47:09;2.90;;;2.70;;
5650;SDS011;40241;52.684;9.758;2023-09-08T10:49:35;3.00;;;2.80;;
5650;SDS011;40241;52.684;9.758;2023-09-08T10:52:11;2.50;;;2.40;;
5650;SDS011;40241;52.684;9.758;2023-09-08T10:54:44;3.40;;;3.10;;
5650;SDS011;40241;52.684;9.758;2023-09-08T10:57:12;2.60;;;2.47;;
5650;SDS011;40241;52.684;9.758;2023-09-08T10:59:40;4.00;;;2.33;;
5650;SDS011;40241;52.684;9.758;2023-09-08T11:02:10;2.33;;;2.23;;
5650;SDS011;40241;52.684;9.758;2023-09-08T11:05:19;2.63;;;2.43;;
5650;SDS011;40241;52.684;9.758;2023-09-08T11:07:47;2.67;;;2.33;;
5650;SDS011;40241;52.684;9.758;2023-09-08T11:10:14;3.20;;;2.50;;
5650;SDS011;40241;52.684;9.758;2023-09-08T11:12:39;3.03;;;2.50;;
5650;SDS011;40241;52.684;9.758;2023-09-08T11:15:06;2.73;;;2.53;;
5650;SDS011;40241;52.684;9.758;2023-09-08T11:17:34;2.70;;;2.50;;
5650;SDS011;40241;52.684;9.758;2023-09-08T11:20:00;2.77;;;2.57;;
5650;SDS011;40241;52.684;9.758;2023-09-08T11:22:32;2.63;;;2.43;;
5650;SDS011;40241;52.684;9.758;2023-09-08T11:24:59;2.67;;;2.47;;
5650;SDS011;40241;52.684;9.758;2023-09-08T11:27:25;2.57;;;2.37;;
5650;SDS011;40241;52.684;9.758;2023-09-08T11:29:52;2.77;;;2.57;;
5650;SDS011;40241;52.684;9.758;2023-09-08T11:32:17;2.50;;;2.30;;
5650;SDS011;40241;52.684;9.758;2023-09-08T11:34:43;2.80;;;2.20;;
5650;SDS011;40241;52.684;9.758;2023-09-08T11:37:15;3.20;;;2.90;;
5650;SDS011;40241;52.684;9.758;2023-09-08T11:39:43;2.40;;;2.30;;
5650;SDS011;40241;52.684;9.758;2023-09-08T11:42:11;3.13;;;2.40;;
5650;SDS011;40241;52.684;9.758;2023-09-08T11:44:37;2.77;;;2.57;;
5650;SDS011;40241;52.684;9.758;2023-09-08T11:47:03;2.60;;;2.40;;
5650;SDS011;40241;52.684;9.758;2023-09-08T11:49:37;2.77;;;2.57;;
5650;SDS011;40241;52.684;9.758;2023-09-08T11:52:03;3.00;;;2.70;;
5650;SDS011;40241;52.684;9.758;2023-09-08T11:54:29;2.50;;;2.40;;
5650;SDS011;40241;52.684;9.758;2023-09-08T11:57:03;2.20;;;2.10;;
5650;SDS011;40241;52.684;9.758;2023-09-08T11:59:30;3.10;;;2.40;;
5650;SDS011;40241;52.684;9.758;2023-09-08T12:01:57;3.53;;;2.43;;
5650;SDS011;40241;52.684;9.758;2023-09-08T12:04:23;4.47;;;3.10;;
5650;SDS011;40241;52.684;9.758;2023-09-08T12:06:49;4.60;;;2.50;;
5650;SDS011;40241;52.684;9.758;2023-09-08T12:09:16;3.50;;;2.67;;
5650;SDS011;40241;52.684;9.758;2023-09-08T12:11:41;2.90;;;2.10;;
5650;SDS011;40241;52.684;9.758;2023-09-08T12:14:08;2.60;;;2.40;;
5650;SDS011;40241;52.684;9.758;2023-09-08T12:16:35;2.73;;;2.53;;
5650;SDS011;40241;52.684;9.758;2023-09-08T12:19:01;3.77;;;2.73;;
5650;SDS011;40241;52.684;9.758;2023-09-08T12:21:26;3.27;;;3.07;;
5650;SDS011;40241;52.684;9.758;2023-09-08T12:23:52;2.90;;;2.60;;
5650;SDS011;40241;52.684;9.758;2023-09-08T12:26:18;2.10;;;2.00;;
5650;SDS011;40241;52.684;9.758;2023-09-08T12:28:45;2.20;;;2.00;;
5650;SDS011;40241;52.684;9.758;2023-09-08T12:31:12;1.97;;;1.87;;
5650;SDS011;40241;52.684;9.758;2023-09-08T12:33:38;2.00;;;1.90;;
5650;SDS011;40241;52.684;9.758;2023-09-08T12:36:13;3.07;;;2.00;;
5650;SDS011;40241;52.684;9.758;2023-09-08T12:38:40;2.50;;;2.30;;
5650;SDS011;40241;52.684;9.758;2023-09-08T12:41:06;2.03;;;1.93;;
5650;SDS011;40241;52.684;9.758;2023-09-08T12:43:31;1.97;;;1.87;;
5650;SDS011;40241;52.684;9.758;2023-09-08T12:45:56;2.50;;;1.90;;
5650;SDS011;40241;52.684;9.758;2023-09-08T12:48:22;2.70;;;1.73;;
5650;SDS011;40241;52.684;9.758;2023-09-08T12:50:48;1.77;;;1.67;;
5650;SDS011;40241;52.684;9.758;2023-09-08T12:53:13;2.10;;;2.00;;
5650;SDS011;40241;52.684;9.758;2023-09-08T12:55:39;6.50;;;2.03;;
5650;SDS011;40241;52.684;9.758;2023-09-08T12:58:04;7.40;;;2.20;;
5650;SDS011;40241;52.684;9.758;2023-09-08T13:00:30;2.37;;;1.83;;
5650;SDS011;40241;52.684;9.758;2023-09-08T13:02:55;2.20;;;2.03;;
5650;SDS011;40241;52.684;9.758;2023-09-08T13:05:20;3.90;;;2.10;;
5650;SDS011;40241;52.684;9.758;2023-09-08T13:07:46;2.13;;;2.00;;
5650;SDS011;40241;52.684;9.758;2023-09-08T13:10:11;2.10;;;2.00;;
5650;SDS011;40241;52.684;9.758;2023-09-08T13:12:37;3.83;;;2.10;;
5650;SDS011;40241;52.684;9.758;2023-09-08T13:15:02;3.87;;;2.10;;
5650;SDS011;40241;52.684;9.758;2023-09-08T13:17:28;2.73;;;1.83;;
5650;SDS011;40241;52.684;9.758;2023-09-08T13:19:53;2.10;;;2.00;;
5650;SDS011;40241;52.684;9.758;2023-09-08T13:22:19;2.03;;;1.83;;
5650;SDS011;40241;52.684;9.758;2023-09-08T13:24:45;2.00;;;1.90;;
5650;SDS011;40241;52.684;9.758;2023-09-08T13:27:10;1.60;;;1.50;;
5650;SDS011;40241;52.684;9.758;2023-09-08T13:29:36;1.90;;;1.80;;
5650;SDS011;40241;52.684;9.758;2023-09-08T13:32:03;2.70;;;1.97;;
5650;SDS011;40241;52.684;9.758;2023-09-08T13:34:29;2.00;;;1.90;;
5650;SDS011;40241;52.684;9.758;2023-09-08T13:36:54;2.93;;;1.97;;
5650;SDS011;40241;52.684;9.758;2023-09-08T13:39:19;1.70;;;1.60;;
5650;SDS011;40241;52.684;9.758;2023-09-08T13:41:52;2.10;;;1.90;;
5650;SDS011;40241;52.684;9.758;2023-09-08T13:44:19;3.00;;;1.90;;
5650;SDS011;40241;52.684;9.758;2023-09-08T13:46:47;1.97;;;1.73;;
5650;SDS011;40241;52.684;9.758;2023-09-08T13:49:13;1.57;;;1.47;;
5650;SDS011;40241;52.684;9.758;2023-09-08T13:51:39;1.70;;;1.60;;
5650;SDS011;40241;52.684;9.758;2023-09-08T13:54:06;2.67;;;1.93;;
5650;SDS011;40241;52.684;9.758;2023-09-08T13:56:32;1.47;;;1.37;;
5650;SDS011;40241;52.684;9.758;2023-09-08T13:58:58;1.80;;;1.70;;
5650;SDS011;40241;52.684;9.758;2023-09-08T14:01:23;2.13;;;1.90;;
5650;SDS011;40241;52.684;9.758;2023-09-08T14:03:49;1.77;;;1.67;;
5650;SDS011;40241;52.684;9.758;2023-09-08T14:06:17;1.87;;;1.70;;
5650;SDS011;40241;52.684;9.758;2023-09-08T14:08:43;1.63;;;1.53;;
5650;SDS011;40241;52.684;9.758;2023-09-08T14:11:08;1.40;;;1.30;;
5650;SDS011;40241;52.684;9.758;2023-09-08T14:13:34;2.17;;;1.73;;
5650;SDS011;40241;52.684;9.758;2023-09-08T14:16:00;1.70;;;1.60;;
5650;SDS011;40241;52.684;9.758;2023-09-08T14:18:25;1.57;;;1.47;;
5650;SDS011;40241;52.684;9.758;2023-09-08T14:20:50;1.93;;;1.50;;
5650;SDS011;40241;52.684;9.758;2023-09-08T14:23:16;2.13;;;1.90;;
5650;SDS011;40241;52.684;9.758;2023-09-08T14:25:41;1.33;;;1.23;;
5650;SDS011;40241;52.684;9.758;2023-09-08T14:28:06;2.17;;;1.83;;
5650;SDS011;40241;52.684;9.758;2023-09-08T14:30:32;1.73;;;1.63;;
5650;SDS011;40241;52.684;9.758;2023-09-08T14:32:57;1.70;;;1.60;;
5650;SDS011;40241;52.684;9.758;2023-09-08T14:35:22;1.80;;;1.70;;
5650;SDS011;40241;52.684;9.758;2023-09-08T14:37:47;1.90;;;1.70;;
5650;SDS011;40241;52.684;9.758;2023-09-08T14:40:13;1.93;;;1.50;;
5650;SDS011;40241;52.684;9.758;2023-09-08T14:42:39;1.97;;;1.77;;
5650;SDS011;40241;52.684;9.758;2023-09-08T14:45:04;6.30;;;1.47;;
5650;SDS011;40241;52.684;9.758;2023-09-08T14:47:30;1.87;;;1.77;;
5650;SDS011;40241;52.684;9.758;2023-09-08T14:49:57;1.50;;;1.40;;
5650;SDS011;40241;52.684;9.758;2023-09-08T14:52:22;1.50;;;1.40;;
5650;SDS011;40241;52.684;9.758;2023-09-08T14:54:47;3.03;;;1.57;;
5650;SDS011;40241;52.684;9.758;2023-09-08T14:57:13;2.80;;;1.77;;
5650;SDS011;40241;52.684;9.758;2023-09-08T14:59:38;1.93;;;1.83;;
5650;SDS011;40241;52.684;9.758;2023-09-08T15:02:03;1.77;;;1.67;;